sensor_id;sensor_type;location;lat;lon;timestamp;pressure;altitude;pressure_sealevel;temperature;humidity
45441;BME280;31189;38.790;-77.084;2024-02-21T00:00:17;102709.52;;;10.44;27.00
45441;BME280;31189;38.790;-77.084;2024-02-21T00:02:41;102707.73;;;10.53;27.28
45441;BME280;31189;38.790;-77.084;2024-02-21T00:05:07;102709.38;;;10.83;27.15
45441;BME280;31189;38.790;-77.084;2024-02-21T00:07:33;102710.15;;;10.17;27.84
45441;BME280;31189;38.790;-77.084;2024-02-21T00:09:59;102710.03;;;10.88;27.22
45441;BME280;31189;38.790;-77.084;2024-02-21T00:12:24;102714.05;;;10.69;27.72
45441;BME280;31189;38.790;-77.084;2024-02-21T00:14:50;102717.22;;;10.45;28.55
45441;BME280;31189;38.790;-77.084;2024-02-21T00:17:16;102714.84;;;10.24;28.37
45441;BME280;31189;38.790;-77.084;2024-02-21T00:19:43;102718.54;;;9.59;29.11
45441;BME280;31189;38.790;-77.084;2024-02-21T00:22:07;102722.78;;;9.69;29.57
45441;BME280;31189;38.790;-77.084;2024-02-21T00:24:33;102719.77;;;9.43;29.73
45441;BME280;31189;38.790;-77.084;2024-02-21T00:26:58;102718.82;;;8.98;30.16
45441;BME280;31189;38.790;-77.084;2024-02-21T00:29:24;102719.93;;;8.71;30.31
45441;BME280;31189;38.790;-77.084;2024-02-21T00:31:50;102720.37;;;8.54;30.40
45441;BME280;31189;38.790;-77.084;2024-02-21T00:34:15;102720.82;;;8.46;30.60
45441;BME280;31189;38.790;-77.084;2024-02-21T00:36:40;102722.26;;;8.39;31.37
45441;BME280;31189;38.790;-77.084;2024-02-21T00:39:06;102725.92;;;8.28;31.38
45441;BME280;31189;38.790;-77.084;2024-02-21T00:41:33;102723.41;;;8.66;31.22
45441;BME280;31189;38.790;-77.084;2024-02-21T00:43:58;102728.86;;;7.82;32.09
45441;BME280;31189;38.790;-77.084;2024-02-21T00:46:23;102727.73;;;8.13;31.86
45441;BME280;31189;38.790;-77.084;2024-02-21T00:48:49;102727.74;;;7.28;32.70
45441;BME280;31189;38.790;-77.084;2024-02-21T00:51:15;102733.62;;;8.29;32.15
45441;BME280;31189;38.790;-77.084;2024-02-21T00:53:41;102736.06;;;7.85;32.37
45441;BME280;31189;38.790;-77.084;2024-02-21T00:56:06;102733.64;;;7.05;33.40
45441;BME280;31189;38.790;-77.084;2024-02-21T00:58:32;102738.00;;;7.68;32.95
45441;BME280;31189;38.790;-77.084;2024-02-21T01:00:57;102740.90;;;8.04;32.84
45441;BME280;31189;38.790;-77.084;2024-02-21T01:03:22;102736.89;;;7.19;33.69
45441;BME280;31189;38.790;-77.084;2024-02-21T01:05:48;102738.82;;;6.33;35.14
45441;BME280;31189;38.790;-77.084;2024-02-21T01:08:13;102742.84;;;6.86;34.28
45441;BME280;31189;38.790;-77.084;2024-02-21T01:10:39;102740.05;;;7.20;34.27
45441;BME280;31189;38.790;-77.084;2024-02-21T01:13:04;102747.37;;;6.58;34.67
45441;BME280;31189;38.790;-77.084;2024-02-21T01:15:30;102751.06;;;6.80;35.00
45441;BME280;31189;38.790;-77.084;2024-02-21T01:17:55;102750.57;;;6.66;35.21
45441;BME280;31189;38.790;-77.084;2024-02-21T01:20:21;102753.74;;;5.99;36.11
45441;BME280;31189;38.790;-77.084;2024-02-21T01:22:46;102753.10;;;6.63;35.32
45441;BME280;31189;38.790;-77.084;2024-02-21T01:25:12;102754.31;;;6.07;36.00
45441;BME280;31189;38.790;-77.084;2024-02-21T01:27:37;102757.38;;;6.91;34.91
45441;BME280;31189;38.790;-77.084;2024-02-21T01:30:03;102754.44;;;5.75;36.33
45441;BME280;31189;38.790;-77.084;2024-02-21T01:32:28;102757.69;;;5.89;36.41
45441;BME280;31189;38.790;-77.084;2024-02-21T01:34:54;102761.58;;;6.47;35.85
45441;BME280;31189;38.790;-77.084;2024-02-21T01:37:19;102761.73;;;6.23;36.76
45441;BME280;31189;38.790;-77.084;2024-02-21T01:39:45;102761.52;;;6.84;35.40
45441;BME280;31189;38.790;-77.084;2024-02-21T01:42:10;102767.31;;;6.49;35.80
45441;BME280;31189;38.790;-77.084;2024-02-21T01:44:36;102768.19;;;5.77;35.81
45441;BME280;31189;38.790;-77.084;2024-02-21T01:47:01;102771.05;;;7.22;34.94
45441;BME280;31189;38.790;-77.084;2024-02-21T01:49:27;102776.20;;;7.04;35.06
45441;BME280;31189;38.790;-77.084;2024-02-21T01:51:52;102774.50;;;7.24;34.20
45441;BME280;31189;38.790;-77.084;2024-02-21T01:54:18;102776.13;;;7.64;33.31
45441;BME280;31189;38.790;-77.084;2024-02-21T01:56:43;102778.89;;;7.73;33.53
45441;BME280;31189;38.790;-77.084;2024-02-21T01:59:08;102774.07;;;7.37;33.48
45441;BME280;31189;38.790;-77.084;2024-02-21T02:01:34;102780.46;;;8.05;32.85
45441;BME280;31189;38.790;-77.084;2024-02-21T02:04:00;102779.59;;;7.59;33.06
45441;BME280;31189;38.790;-77.084;2024-02-21T02:06:26;102780.41;;;8.61;32.31
45441;BME280;31189;38.790;-77.084;2024-02-21T02:08:51;102781.01;;;7.97;32.46
45441;BME280;31189;38.790;-77.084;2024-02-21T02:11:17;102783.03;;;7.64;33.56
45441;BME280;31189;38.790;-77.084;2024-02-21T02:13:42;102784.08;;;7.51;34.17
45441;BME280;31189;38.790;-77.084;2024-02-21T02:16:08;102785.26;;;7.46;34.15
45441;BME280;31189;38.790;-77.084;2024-02-21T02:18:34;102790.14;;;8.04;33.49
45441;BME280;31189;38.790;-77.084;2024-02-21T02:20:59;102794.70;;;7.02;35.03
45441;BME280;31189;38.790;-77.084;2024-02-21T02:23:25;102790.94;;;7.92;34.32
45441;BME280;31189;38.790;-77.084;2024-02-21T02:25:51;102790.30;;;7.88;34.06
45441;BME280;31189;38.790;-77.084;2024-02-21T02:28:16;102794.59;;;6.85;35.99
45441;BME280;31189;38.790;-77.084;2024-02-21T02:30:42;102796.22;;;6.56;36.81
45441;BME280;31189;38.790;-77.084;2024-02-21T02:33:07;102794.95;;;6.93;36.37
45441;BME280;31189;38.790;-77.084;2024-02-21T02:35:33;102799.64;;;6.90;36.64
45441;BME280;31189;38.790;-77.084;2024-02-21T02:37:59;102803.32;;;7.45;36.29
45441;BME280;31189;38.790;-77.084;2024-02-21T02:40:24;102806.02;;;7.34;36.22
45441;BME280;31189;38.790;-77.084;2024-02-21T02:42:50;102806.88;;;7.01;36.82
45441;BME280;31189;38.790;-77.084;2024-02-21T02:45:15;102805.02;;;7.30;35.88
45441;BME280;31189;38.790;-77.084;2024-02-21T02:47:41;102807.43;;;5.34;38.92
45441;BME280;31189;38.790;-77.084;2024-02-21T02:50:07;102808.20;;;7.39;36.92
45441;BME280;31189;38.790;-77.084;2024-02-21T02:52:32;102807.77;;;5.68;38.49
45441;BME280;31189;38.790;-77.084;2024-02-21T02:54:58;102804.63;;;7.32;36.66
45441;BME280;31189;38.790;-77.084;2024-02-21T02:57:24;102807.39;;;7.10;36.63
45441;BME280;31189;38.790;-77.084;2024-02-21T02:59:50;102804.02;;;6.89;37.27
45441;BME280;31189;38.790;-77.084;2024-02-21T03:02:15;102801.39;;;7.65;36.41
45441;BME280;31189;38.790;-77.084;2024-02-21T03:04:41;102800.70;;;7.70;35.95
45441;BME280;31189;38.790;-77.084;2024-02-21T03:07:06;102806.79;;;7.76;35.85
45441;BME280;31189;38.790;-77.084;2024-02-21T03:09:32;102812.15;;;6.12;37.21
45441;BME280;31189;38.790;-77.084;2024-02-21T03:11:58;102808.14;;;7.34;36.63
45441;BME280;31189;38.790;-77.084;2024-02-21T03:14:23;102812.16;;;6.65;37.84
45441;BME280;31189;38.790;-77.084;2024-02-21T03:16:51;102816.38;;;6.92;37.71
45441;BME280;31189;38.790;-77.084;2024-02-21T03:19:14;102816.46;;;6.27;38.69
45441;BME280;31189;38.790;-77.084;2024-02-21T03:21:40;102815.48;;;7.38;37.31
45441;BME280;31189;38.790;-77.084;2024-02-21T03:24:06;102815.40;;;6.76;37.36
45441;BME280;31189;38.790;-77.084;2024-02-21T03:26:32;102818.59;;;7.09;37.01
45441;BME280;31189;38.790;-77.084;2024-02-21T03:28:57;102825.38;;;6.90;37.92
45441;BME280;31189;38.790;-77.084;2024-02-21T03:31:23;102823.53;;;5.30;40.01
45441;BME280;31189;38.790;-77.084;2024-02-21T03:33:49;102826.35;;;7.31;37.46
45441;BME280;31189;38.790;-77.084;2024-02-21T03:36:15;102828.13;;;6.50;38.38
45441;BME280;31189;38.790;-77.084;2024-02-21T03:38:40;102830.63;;;7.19;37.46
45441;BME280;31189;38.790;-77.084;2024-02-21T03:41:05;102827.90;;;7.46;37.18
45441;BME280;31189;38.790;-77.084;2024-02-21T03:43:31;102829.54;;;6.69;38.18
45441;BME280;31189;38.790;-77.084;2024-02-21T03:45:57;102827.33;;;6.75;38.08
45441;BME280;31189;38.790;-77.084;2024-02-21T03:48:22;102827.90;;;7.03;37.95
45441;BME280;31189;38.790;-77.084;2024-02-21T03:50:48;102828.10;;;7.29;37.59
45441;BME280;31189;38.790;-77.084;2024-02-21T03:53:14;102828.92;;;7.41;37.11
45441;BME280;31189;38.790;-77.084;2024-02-21T03:55:40;102828.10;;;6.37;38.31
45441;BME280;31189;38.790;-77.084;2024-02-21T03:58:05;102829.81;;;6.86;38.21
45441;BME280;31189;38.790;-77.084;2024-02-21T04:00:31;102827.79;;;6.10;39.30
45441;BME280;31189;38.790;-77.084;2024-02-21T04:02:57;102826.14;;;5.85;39.19
45441;BME280;31189;38.790;-77.084;2024-02-21T04:05:22;102826.35;;;6.13;39.32
45441;BME280;31189;38.790;-77.084;2024-02-21T04:07:48;102824.81;;;6.00;39.08
45441;BME280;31189;38.790;-77.084;2024-02-21T04:10:14;102829.81;;;6.96;38.47
45441;BME280;31189;38.790;-77.084;2024-02-21T04:12:39;102829.65;;;6.46;38.56
45441;BME280;31189;38.790;-77.084;2024-02-21T04:15:06;102833.74;;;5.45;39.75
45441;BME280;31189;38.790;-77.084;2024-02-21T04:17:31;102834.07;;;5.30;40.48
45441;BME280;31189;38.790;-77.084;2024-02-21T04:20:03;102838.25;;;6.44;39.21
45441;BME280;31189;38.790;-77.084;2024-02-21T04:22:22;102842.76;;;6.74;38.86
45441;BME280;31189;38.790;-77.084;2024-02-21T04:24:48;102847.09;;;6.74;38.72
45441;BME280;31189;38.790;-77.084;2024-02-21T04:27:13;102848.73;;;7.08;38.27
45441;BME280;31189;38.790;-77.084;2024-02-21T04:29:39;102850.04;;;6.86;37.93
45441;BME280;31189;38.790;-77.084;2024-02-21T04:32:06;102850.34;;;6.06;38.43
45441;BME280;31189;38.790;-77.084;2024-02-21T04:34:30;102847.42;;;5.66;38.94
45441;BME280;31189;38.790;-77.084;2024-02-21T04:36:56;102854.01;;;6.68;38.42
45441;BME280;31189;38.790;-77.084;2024-02-21T04:39:22;102854.79;;;6.44;37.99
45441;BME280;31189;38.790;-77.084;2024-02-21T04:41:48;102851.27;;;6.91;37.59
45441;BME280;31189;38.790;-77.084;2024-02-21T04:44:13;102848.73;;;7.04;37.37
45441;BME280;31189;38.790;-77.084;2024-02-21T04:46:42;102849.70;;;6.73;37.80
45441;BME280;31189;38.790;-77.084;2024-02-21T04:49:05;102845.41;;;5.42;39.25
45441;BME280;31189;38.790;-77.084;2024-02-21T04:51:30;102847.20;;;5.75;39.27
45441;BME280;31189;38.790;-77.084;2024-02-21T04:53:56;102854.25;;;6.49;38.41
45441;BME280;31189;38.790;-77.084;2024-02-21T04:56:22;102858.44;;;5.49;39.93
45441;BME280;31189;38.790;-77.084;2024-02-21T04:58:47;102859.78;;;6.28;38.95
45441;BME280;31189;38.790;-77.084;2024-02-21T05:01:13;102863.63;;;6.31;39.35
45441;BME280;31189;38.790;-77.084;2024-02-21T05:03:40;102869.72;;;6.16;39.36
45441;BME280;31189;38.790;-77.084;2024-02-21T05:06:05;102870.14;;;6.07;39.18
45441;BME280;31189;38.790;-77.084;2024-02-21T05:08:30;102873.38;;;6.72;38.69
45441;BME280;31189;38.790;-77.084;2024-02-21T05:10:56;102873.43;;;6.21;39.32
45441;BME280;31189;38.790;-77.084;2024-02-21T05:13:21;102874.10;;;6.29;39.27
45441;BME280;31189;38.790;-77.084;2024-02-21T05:15:47;102879.60;;;6.62;38.79
45441;BME280;31189;38.790;-77.084;2024-02-21T05:18:13;102882.82;;;7.03;38.40
45441;BME280;31189;38.790;-77.084;2024-02-21T05:20:39;102882.58;;;6.69;38.52
45441;BME280;31189;38.790;-77.084;2024-02-21T05:23:04;102887.23;;;6.64;38.45
45441;BME280;31189;38.790;-77.084;2024-02-21T05:25:30;102885.15;;;6.69;38.70
45441;BME280;31189;38.790;-77.084;2024-02-21T05:27:56;102881.08;;;6.49;38.57
45441;BME280;31189;38.790;-77.084;2024-02-21T05:30:21;102885.19;;;6.01;39.65
45441;BME280;31189;38.790;-77.084;2024-02-21T05:32:47;102886.87;;;6.09;39.37
45441;BME280;31189;38.790;-77.084;2024-02-21T05:35:13;102889.25;;;6.84;38.57
45441;BME280;31189;38.790;-77.084;2024-02-21T05:37:38;102887.06;;;6.32;38.89
45441;BME280;31189;38.790;-77.084;2024-02-21T05:40:05;102889.22;;;6.10;38.76
45441;BME280;31189;38.790;-77.084;2024-02-21T05:42:30;102889.24;;;6.10;39.16
45441;BME280;31189;38.790;-77.084;2024-02-21T05:44:55;102889.81;;;5.59;39.18
45441;BME280;31189;38.790;-77.084;2024-02-21T05:47:21;102891.28;;;6.44;38.89
45441;BME280;31189;38.790;-77.084;2024-02-21T05:49:47;102891.46;;;6.58;38.44
45441;BME280;31189;38.790;-77.084;2024-02-21T05:52:13;102890.59;;;5.73;39.13
45441;BME280;31189;38.790;-77.084;2024-02-21T05:54:39;102888.03;;;6.10;39.06
45441;BME280;31189;38.790;-77.084;2024-02-21T05:57:04;102884.15;;;5.50;39.69
45441;BME280;31189;38.790;-77.084;2024-02-21T05:59:30;102884.68;;;5.13;40.18
45441;BME280;31189;38.790;-77.084;2024-02-21T06:01:56;102881.02;;;5.03;40.55
45441;BME280;31189;38.790;-77.084;2024-02-21T06:04:21;102881.00;;;4.73;41.42
45441;BME280;31189;38.790;-77.084;2024-02-21T06:06:47;102882.80;;;4.44;42.18
45441;BME280;31189;38.790;-77.084;2024-02-21T06:09:14;102878.03;;;4.98;41.15
45441;BME280;31189;38.790;-77.084;2024-02-21T06:11:38;102877.85;;;4.94;41.18
45441;BME280;31189;38.790;-77.084;2024-02-21T06:14:04;102874.90;;;4.29;41.99
45441;BME280;31189;38.790;-77.084;2024-02-21T06:16:29;102873.09;;;3.66;43.04
45441;BME280;31189;38.790;-77.084;2024-02-21T06:18:55;102881.22;;;3.46;43.61
45441;BME280;31189;38.790;-77.084;2024-02-21T06:21:21;102884.63;;;4.14;42.70
45441;BME280;31189;38.790;-77.084;2024-02-21T06:23:46;102881.78;;;4.20;41.99
45441;BME280;31189;38.790;-77.084;2024-02-21T06:26:12;102886.79;;;2.84;44.56
45441;BME280;31189;38.790;-77.084;2024-02-21T06:28:38;102886.42;;;3.45;43.98
45441;BME280;31189;38.790;-77.084;2024-02-21T06:31:04;102883.57;;;3.66;42.75
45441;BME280;31189;38.790;-77.084;2024-02-21T06:33:29;102881.46;;;3.00;43.71
45441;BME280;31189;38.790;-77.084;2024-02-21T06:35:55;102881.27;;;3.46;44.28
45441;BME280;31189;38.790;-77.084;2024-02-21T06:38:21;102883.21;;;2.52;45.46
45441;BME280;31189;38.790;-77.084;2024-02-21T06:40:46;102884.96;;;3.45;44.87
45441;BME280;31189;38.790;-77.084;2024-02-21T06:43:12;102882.10;;;2.63;45.60
45441;BME280;31189;38.790;-77.084;2024-02-21T06:45:39;102882.99;;;2.63;45.42
45441;BME280;31189;38.790;-77.084;2024-02-21T06:48:04;102884.25;;;3.33;44.59
45441;BME280;31189;38.790;-77.084;2024-02-21T06:50:29;102887.53;;;2.51;45.52
45441;BME280;31189;38.790;-77.084;2024-02-21T06:52:55;102883.38;;;3.06;45.38
45441;BME280;31189;38.790;-77.084;2024-02-21T06:55:21;102876.89;;;3.36;44.53
45441;BME280;31189;38.790;-77.084;2024-02-21T06:57:46;102878.65;;;3.57;43.94
45441;BME280;31189;38.790;-77.084;2024-02-21T07:00:13;102878.65;;;3.40;44.50
45441;BME280;31189;38.790;-77.084;2024-02-21T07:02:38;102882.61;;;3.36;44.70
45441;BME280;31189;38.790;-77.084;2024-02-21T07:05:04;102886.82;;;3.76;43.89
45441;BME280;31189;38.790;-77.084;2024-02-21T07:07:29;102883.61;;;3.02;44.22
45441;BME280;31189;38.790;-77.084;2024-02-21T07:09:55;102882.07;;;2.86;44.64
45441;BME280;31189;38.790;-77.084;2024-02-21T07:12:21;102881.88;;;3.10;44.90
45441;BME280;31189;38.790;-77.084;2024-02-21T07:14:46;102877.41;;;4.04;43.35
45441;BME280;31189;38.790;-77.084;2024-02-21T07:17:12;102868.93;;;3.90;42.48
45441;BME280;31189;38.790;-77.084;2024-02-21T07:19:38;102867.40;;;4.39;42.28
45441;BME280;31189;38.790;-77.084;2024-02-21T07:22:04;102863.35;;;3.82;42.67
45441;BME280;31189;38.790;-77.084;2024-02-21T07:24:29;102861.82;;;4.26;42.76
45441;BME280;31189;38.790;-77.084;2024-02-21T07:26:55;102859.32;;;4.29;42.05
45441;BME280;31189;38.790;-77.084;2024-02-21T07:29:21;102860.85;;;4.20;42.12
45441;BME280;31189;38.790;-77.084;2024-02-21T07:31:48;102868.10;;;3.47;42.64
45441;BME280;31189;38.790;-77.084;2024-02-21T07:34:12;102866.55;;;3.65;42.95
45441;BME280;31189;38.790;-77.084;2024-02-21T07:36:38;102872.64;;;2.73;43.85
45441;BME280;31189;38.790;-77.084;2024-02-21T07:39:04;102875.91;;;2.61;44.95
45441;BME280;31189;38.790;-77.084;2024-02-21T07:41:29;102873.17;;;2.18;45.44
45441;BME280;31189;38.790;-77.084;2024-02-21T07:43:55;102870.95;;;2.85;44.79
45441;BME280;31189;38.790;-77.084;2024-02-21T07:46:21;102867.48;;;3.77;43.59
45441;BME280;31189;38.790;-77.084;2024-02-21T07:48:47;102862.66;;;2.94;43.98
45441;BME280;31189;38.790;-77.084;2024-02-21T07:51:12;102855.95;;;2.42;45.24
45441;BME280;31189;38.790;-77.084;2024-02-21T07:53:39;102851.95;;;3.01;44.49
45441;BME280;31189;38.790;-77.084;2024-02-21T07:56:04;102850.59;;;2.85;44.86
45441;BME280;31189;38.790;-77.084;2024-02-21T07:58:29;102851.05;;;3.20;44.76
45441;BME280;31189;38.790;-77.084;2024-02-21T08:00:55;102845.81;;;2.96;44.71
45441;BME280;31189;38.790;-77.084;2024-02-21T08:03:21;102842.91;;;2.85;45.32
45441;BME280;31189;38.790;-77.084;2024-02-21T08:05:46;102836.67;;;3.40;44.36
45441;BME280;31189;38.790;-77.084;2024-02-21T08:08:13;102833.07;;;3.23;43.37
45441;BME280;31189;38.790;-77.084;2024-02-21T08:10:39;102830.82;;;2.79;44.01
45441;BME280;31189;38.790;-77.084;2024-02-21T08:13:04;102825.34;;;1.86;46.19
45441;BME280;31189;38.790;-77.084;2024-02-21T08:15:29;102819.84;;;1.71;47.07
45441;BME280;31189;38.790;-77.084;2024-02-21T08:17:55;102817.02;;;1.44;47.94
45441;BME280;31189;38.790;-77.084;2024-02-21T08:20:21;102815.80;;;2.77;45.83
45441;BME280;31189;38.790;-77.084;2024-02-21T08:22:46;102815.87;;;2.87;44.31
45441;BME280;31189;38.790;-77.084;2024-02-21T08:25:12;102813.26;;;3.77;42.59
45441;BME280;31189;38.790;-77.084;2024-02-21T08:27:38;102812.62;;;3.17;42.58
45441;BME280;31189;38.790;-77.084;2024-02-21T08:30:04;102810.95;;;2.36;44.11
45441;BME280;31189;38.790;-77.084;2024-02-21T08:32:29;102808.56;;;2.59;43.90
45441;BME280;31189;38.790;-77.084;2024-02-21T08:34:55;102808.46;;;2.54;44.22
45441;BME280;31189;38.790;-77.084;2024-02-21T08:37:20;102804.35;;;2.35;45.01
45441;BME280;31189;38.790;-77.084;2024-02-21T08:39:47;102800.09;;;1.63;46.43
45441;BME280;31189;38.790;-77.084;2024-02-21T08:42:11;102801.06;;;1.23;47.42
45441;BME280;31189;38.790;-77.084;2024-02-21T08:44:40;102803.09;;;2.55;45.73
45441;BME280;31189;38.790;-77.084;2024-02-21T08:47:02;102805.02;;;2.57;44.54
45441;BME280;31189;38.790;-77.084;2024-02-21T08:49:28;102804.33;;;2.70;44.41
45441;BME280;31189;38.790;-77.084;2024-02-21T08:51:54;102802.87;;;2.31;44.85
45441;BME280;31189;38.790;-77.084;2024-02-21T08:54:19;102801.04;;;1.50;46.41
45441;BME280;31189;38.790;-77.084;2024-02-21T08:56:45;102802.60;;;1.65;46.53
45441;BME280;31189;38.790;-77.084;2024-02-21T08:59:11;102799.57;;;2.02;46.49
45441;BME280;31189;38.790;-77.084;2024-02-21T09:01:36;102800.59;;;2.63;45.40
45441;BME280;31189;38.790;-77.084;2024-02-21T09:04:02;102794.96;;;1.81;45.57
45441;BME280;31189;38.790;-77.084;2024-02-21T09:06:28;102794.76;;;1.28;48.19
45441;BME280;31189;38.790;-77.084;2024-02-21T09:08:56;102792.94;;;2.30;46.06
45441;BME280;31189;38.790;-77.084;2024-02-21T09:11:19;102798.92;;;2.46;45.38
45441;BME280;31189;38.790;-77.084;2024-02-21T09:13:45;102796.71;;;3.24;44.29
45441;BME280;31189;38.790;-77.084;2024-02-21T09:16:11;102796.81;;;2.42;44.76
45441;BME280;31189;38.790;-77.084;2024-02-21T09:18:37;102795.20;;;2.33;44.93
45441;BME280;31189;38.790;-77.084;2024-02-21T09:21:02;102794.56;;;1.44;46.74
45441;BME280;31189;38.790;-77.084;2024-02-21T09:23:28;102789.46;;;0.77;48.58
45441;BME280;31189;38.790;-77.084;2024-02-21T09:25:54;102782.05;;;1.95;46.50
45441;BME280;31189;38.790;-77.084;2024-02-21T09:28:20;102777.43;;;1.90;46.17
45441;BME280;31189;38.790;-77.084;2024-02-21T09:30:45;102779.47;;;1.97;45.95
45441;BME280;31189;38.790;-77.084;2024-02-21T09:33:11;102779.56;;;1.55;46.84
45441;BME280;31189;38.790;-77.084;2024-02-21T09:35:37;102782.96;;;2.37;44.96
45441;BME280;31189;38.790;-77.084;2024-02-21T09:38:03;102783.57;;;2.49;44.35
45441;BME280;31189;38.790;-77.084;2024-02-21T09:40:28;102783.15;;;2.40;44.79
45441;BME280;31189;38.790;-77.084;2024-02-21T09:43:02;102781.26;;;1.62;44.91
45441;BME280;31189;38.790;-77.084;2024-02-21T09:45:21;102786.34;;;2.03;44.89
45441;BME280;31189;38.790;-77.084;2024-02-21T09:47:56;102792.47;;;1.93;46.01
45441;BME280;31189;38.790;-77.084;2024-02-21T09:50:11;102799.30;;;2.48;44.48
45441;BME280;31189;38.790;-77.084;2024-02-21T09:52:37;102804.65;;;2.53;44.70
45441;BME280;31189;38.790;-77.084;2024-02-21T09:55:03;102811.83;;;2.29;44.77
45441;BME280;31189;38.790;-77.084;2024-02-21T09:57:28;102813.10;;;1.54;45.88
45441;BME280;31189;38.790;-77.084;2024-02-21T09:59:56;102816.98;;;1.08;46.86
45441;BME280;31189;38.790;-77.084;2024-02-21T10:02:20;102822.07;;;1.94;45.74
45441;BME280;31189;38.790;-77.084;2024-02-21T10:04:45;102827.56;;;2.88;44.47
45441;BME280;31189;38.790;-77.084;2024-02-21T10:07:11;102827.25;;;1.75;45.58
45441;BME280;31189;38.790;-77.084;2024-02-21T10:09:37;102831.55;;;1.89;45.42
45441;BME280;31189;38.790;-77.084;2024-02-21T10:12:09;102831.58;;;0.71;47.82
45441;BME280;31189;38.790;-77.084;2024-02-21T10:14:28;102834.20;;;1.07;47.28
45441;BME280;31189;38.790;-77.084;2024-02-21T10:16:58;102836.05;;;1.09;46.81
45441;BME280;31189;38.790;-77.084;2024-02-21T10:19:20;102840.65;;;1.17;47.79
45441;BME280;31189;38.790;-77.084;2024-02-21T10:21:59;102845.74;;;1.78;46.29
45441;BME280;31189;38.790;-77.084;2024-02-21T10:24:12;102846.34;;;1.60;46.63
45441;BME280;31189;38.790;-77.084;2024-02-21T10:26:36;102846.98;;;0.93;47.64
45441;BME280;31189;38.790;-77.084;2024-02-21T10:29:03;102850.18;;;1.09;48.13
45441;BME280;31189;38.790;-77.084;2024-02-21T10:31:28;102854.12;;;1.61;46.67
45441;BME280;31189;38.790;-77.084;2024-02-21T10:33:56;102858.36;;;1.55;46.46
45441;BME280;31189;38.790;-77.084;2024-02-21T10:36:19;102856.36;;;1.08;47.72
45441;BME280;31189;38.790;-77.084;2024-02-21T10:38:45;102856.91;;;1.08;47.99
45441;BME280;31189;38.790;-77.084;2024-02-21T10:41:14;102859.11;;;1.16;47.82
45441;BME280;31189;38.790;-77.084;2024-02-21T10:43:39;102863.43;;;1.30;47.88
45441;BME280;31189;38.790;-77.084;2024-02-21T10:46:05;102864.69;;;1.95;46.55
45441;BME280;31189;38.790;-77.084;2024-02-21T10:48:35;102866.57;;;2.04;45.75
45441;BME280;31189;38.790;-77.084;2024-02-21T10:50:57;102864.66;;;1.50;47.16
45441;BME280;31189;38.790;-77.084;2024-02-21T10:53:29;102866.00;;;0.28;48.41
45441;BME280;31189;38.790;-77.084;2024-02-21T10:55:51;102868.40;;;0.93;48.19
45441;BME280;31189;38.790;-77.084;2024-02-21T10:58:12;102870.28;;;1.61;46.90
45441;BME280;31189;38.790;-77.084;2024-02-21T11:00:37;102867.15;;;1.15;46.75
45441;BME280;31189;38.790;-77.084;2024-02-21T11:03:03;102858.20;;;0.73;48.11
45441;BME280;31189;38.790;-77.084;2024-02-21T11:05:28;102853.78;;;1.26;47.42
45441;BME280;31189;38.790;-77.084;2024-02-21T11:07:54;102854.35;;;1.64;46.61
45441;BME280;31189;38.790;-77.084;2024-02-21T11:10:24;102848.21;;;1.63;45.82
45441;BME280;31189;38.790;-77.084;2024-02-21T11:12:45;102842.30;;;1.28;46.33
45441;BME280;31189;38.790;-77.084;2024-02-21T11:15:12;102845.13;;;1.74;45.49
45441;BME280;31189;38.790;-77.084;2024-02-21T11:17:36;102847.14;;;1.75;45.68
45441;BME280;31189;38.790;-77.084;2024-02-21T11:20:11;102849.09;;;1.77;45.19
45441;BME280;31189;38.790;-77.084;2024-02-21T11:22:28;102849.98;;;1.53;46.10
45441;BME280;31189;38.790;-77.084;2024-02-21T11:24:54;102859.33;;;2.07;44.70
45441;BME280;31189;38.790;-77.084;2024-02-21T11:27:20;102863.88;;;1.58;45.72
45441;BME280;31189;38.790;-77.084;2024-02-21T11:29:46;102866.43;;;1.79;44.55
45441;BME280;31189;38.790;-77.084;2024-02-21T11:32:11;102866.22;;;1.23;46.34
45441;BME280;31189;38.790;-77.084;2024-02-21T11:34:37;102868.62;;;0.73;46.57
45441;BME280;31189;38.790;-77.084;2024-02-21T11:37:03;102868.31;;;1.07;47.12
45441;BME280;31189;38.790;-77.084;2024-02-21T11:39:28;102867.71;;;0.88;47.60
45441;BME280;31189;38.790;-77.084;2024-02-21T11:42:03;102870.65;;;0.31;48.79
45441;BME280;31189;38.790;-77.084;2024-02-21T11:44:19;102874.23;;;-0.38;50.48
45441;BME280;31189;38.790;-77.084;2024-02-21T11:46:45;102871.93;;;1.24;48.59
45441;BME280;31189;38.790;-77.084;2024-02-21T11:49:11;102875.20;;;1.33;47.05
45441;BME280;31189;38.790;-77.084;2024-02-21T11:51:37;102877.88;;;0.85;48.05
45441;BME280;31189;38.790;-77.084;2024-02-21T11:54:02;102878.80;;;0.51;48.92
45441;BME280;31189;38.790;-77.084;2024-02-21T11:56:28;102873.24;;;0.07;49.36
45441;BME280;31189;38.790;-77.084;2024-02-21T11:58:54;102871.08;;;-0.08;49.75
45441;BME280;31189;38.790;-77.084;2024-02-21T12:01:19;102870.55;;;-0.03;49.80
45441;BME280;31189;38.790;-77.084;2024-02-21T12:03:45;102867.46;;;0.16;49.75
45441;BME280;31189;38.790;-77.084;2024-02-21T12:06:11;102861.94;;;0.21;50.03
45441;BME280;31189;38.790;-77.084;2024-02-21T12:08:42;102863.83;;;0.96;49.32
45441;BME280;31189;38.790;-77.084;2024-02-21T12:11:02;102861.95;;;1.61;47.78
45441;BME280;31189;38.790;-77.084;2024-02-21T12:13:28;102855.23;;;1.56;46.80
45441;BME280;31189;38.790;-77.084;2024-02-21T12:15:54;102850.52;;;1.21;47.47
45441;BME280;31189;38.790;-77.084;2024-02-21T12:18:20;102854.52;;;1.75;46.33
45441;BME280;31189;38.790;-77.084;2024-02-21T12:20:48;102857.11;;;2.12;45.41
45441;BME280;31189;38.790;-77.084;2024-02-21T12:23:11;102860.42;;;1.82;45.22
45441;BME280;31189;38.790;-77.084;2024-02-21T12:25:36;102861.25;;;1.06;46.13
45441;BME280;31189;38.790;-77.084;2024-02-21T12:28:02;102865.46;;;1.53;46.25
45441;BME280;31189;38.790;-77.084;2024-02-21T12:30:28;102865.05;;;1.20;46.48